Time;durP1;ratioP1;P1;durP2;ratioP2;P2;SDS_P1;SDS_P2;PMS_P1;PMS_P2;Temp;Humidity;BMP_temperature;BMP_pressure;BME280_temperature;BME280_humidity;BME280_pressure;Samples;Min_cycle;Max_cycle;Signal;HPM_P1;HPM_P2
2022/08/15 00:01:27;;;;;;;15.60;12.30;;;;;;;;;;5122967;27;20050;-75
2022/08/15 00:03:55;;;;;;;14.73;12.90;;;;;;;;;;5122376;27;20040;-75
2022/08/15 00:06:23;;;;;;;14.85;11.98;;;;;;;;;;5126438;27;20023;-75
2022/08/15 00:08:51;;;;;;;12.75;11.45;;;;;;;;;;5127862;27;20126;-75
2022/08/15 00:11:19;;;;;;;13.60;11.57;;;;;;;;;;5125107;27;20008;-74
2022/08/15 00:13:49;;;;;;;14.48;11.65;;;;;;;;;;5122265;27;20042;-74
2022/08/15 00:16:16;;;;;;;13.20;11.80;;;;;;;;;;5124829;27;20087;-75
2022/08/15 00:18:45;;;;;;;13.60;11.82;;;;;;;;;;5103621;27;20052;-74
2022/08/15 00:21:11;;;;;;;13.63;11.77;;;;;;;;;;5118119;27;20036;-75
2022/08/15 00:23:40;;;;;;;14.40;12.90;;;;;;;;;;5137095;27;20024;-74
2022/08/15 00:26:07;;;;;;;14.00;11.45;;;;;;;;;;5129301;27;20020;-75
2022/08/15 00:28:33;;;;;;;12.68;11.38;;;;;;;;;;5130251;27;20061;-74
2022/08/15 00:30:59;;;;;;;13.20;11.90;;;;;;;;;;5127637;27;20016;-75
2022/08/15 00:33:25;;;;;;;12.93;10.88;;;;;;;;;;5107338;27;20069;-75
2022/08/15 00:35:51;;;;;;;13.20;11.90;;;;;;;;;;5131866;27;20027;-76
2022/08/15 00:38:17;;;;;;;14.48;11.30;;;;;;;;;;5137244;27;20080;-75
2022/08/15 00:43:32;;;;;;;12.90;11.45;;;;;;;;;;5136114;28;20031;-74
2022/08/15 00:45:59;;;;;;;13.10;11.35;;;;;;;;;;5109824;28;20048;-74
2022/08/15 00:48:43;;;;;;;13.38;10.82;;;;;;;;;;5113314;28;20092;-74
2022/08/15 00:51:27;;;;;;;13.68;11.18;;;;;;;;;;5121134;28;20532;-75
2022/08/15 00:54:19;;;;;;;12.80;11.50;;;;;;;;;;5104501;28;20055;-74
2022/08/15 00:56:48;;;;;;;13.27;11.35;;;;;;;;;;5072394;28;20056;-75
2022/08/15 00:59:16;;;;;;;14.10;11.25;;;;;;;;;;5108361;28;20031;-74
2022/08/15 01:01:42;;;;;;;12.10;10.80;;;;;;;;;;5101306;28;20108;-74
2022/08/15 01:04:10;;;;;;;12.40;11.20;;;;;;;;;;5097695;28;20068;-74
2022/08/15 01:06:37;;;;;;;13.65;11.27;;;;;;;;;;5103000;28;20047;-74
2022/08/15 01:09:04;;;;;;;12.90;11.30;;;;;;;;;;5104180;28;20047;-74
2022/08/15 01:11:38;;;;;;;13.75;11.73;;;;;;;;;;5104790;28;20036;-75
2022/08/15 01:14:06;;;;;;;13.70;12.30;;;;;;;;;;5109799;28;20032;-75
2022/08/15 01:16:33;;;;;;;14.13;12.18;;;;;;;;;;5101345;28;20028;-76
2022/08/15 01:18:59;;;;;;;16.17;12.85;;;;;;;;;;5113915;28;20036;-75
2022/08/15 01:21:28;;;;;;;16.80;13.25;;;;;;;;;;5106522;28;20042;-74
2022/08/15 01:23:59;;;;;;;14.68;13.02;;;;;;;;;;5095528;28;20035;-74
2022/08/15 01:26:25;;;;;;;;;;;;;;;;;;5108606;28;20058;-74
2022/08/15 01:28:53;;;;;;;13.85;12.40;;;;;;;;;;5096458;28;19928;-74
2022/08/15 01:31:20;;;;;;;14.25;12.65;;;;;;;;;;5079276;28;20056;-73
2022/08/15 01:33:48;;;;;;;14.05;12.50;;;;;;;;;;5112012;28;20028;-74
2022/08/15 01:36:15;;;;;;;14.35;12.73;;;;;;;;;;5103113;28;20043;-74
2022/08/15 01:38:43;;;;;;;17.15;13.25;;;;;;;;;;5096281;28;20025;-75
2022/08/15 01:41:21;;;;;;;17.90;13.20;;;;;;;;;;5108804;28;20024;-74
2022/08/15 01:43:52;;;;;;;18.15;13.30;;;;;;;;;;5116128;28;20059;-74
2022/08/15 01:46:21;;;;;;;14.73;13.23;;;;;;;;;;5109706;28;20089;-75
2022/08/15 01:48:50;;;;;;;15.60;13.18;;;;;;;;;;5114967;28;20032;-74
2022/08/15 01:51:17;;;;;;;14.90;12.70;;;;;;;;;;5113691;28;20024;-75
2022/08/15 01:53:58;;;;;;;14.25;12.02;;;;;;;;;;5104860;28;20051;-75
2022/08/15 01:56:25;;;;;;;;;;;;;;;;;;5126836;28;20036;-73
2022/08/15 01:58:51;;;;;;;13.77;11.80;;;;;;;;;;5142211;28;19903;-74
2022/08/15 02:01:18;;;;;;;13.98;12.43;;;;;;;;;;5125800;28;20028;-75
2022/08/15 02:03:46;;;;;;;14.63;12.65;;;;;;;;;;5122821;28;20044;-75
2022/08/15 02:06:17;;;;;;;15.07;12.55;;;;;;;;;;5128277;28;20023;-75
2022/08/15 02:08:44;;;;;;;15.50;12.45;;;;;;;;;;5108600;28;20027;-74
2022/08/15 02:11:12;;;;;;;14.30;12.80;;;;;;;;;;5126660;27;20087;-74
2022/08/15 02:13:39;;;;;;;14.80;13.00;;;;;;;;;;5134264;27;20097;-73
2022/08/15 02:16:05;;;;;;;14.23;12.73;;;;;;;;;;5120783;28;20027;-74
2022/08/15 02:18:31;;;;;;;14.40;12.88;;;;;;;;;;5118649;28;20020;-75
2022/08/15 02:20:57;;;;;;;12.77;11.48;;;;;;;;;;5125602;27;20067;-73
2022/08/15 02:23:23;;;;;;;12.52;11.23;;;;;;;;;;5141376;27;20019;-75
2022/08/15 02:25:50;;;;;;;12.40;10.60;;;;;;;;;;5131213;27;20054;-75
2022/08/15 02:28:16;;;;;;;13.27;11.27;;;;;;;;;;5135182;27;20027;-75
2022/08/15 02:30:43;;;;;;;12.10;11.00;;;;;;;;;;5134618;27;20027;-75
2022/08/15 02:33:10;;;;;;;14.18;11.60;;;;;;;;;;5121700;28;20027;-74
2022/08/15 02:35:36;;;;;;;15.63;11.70;;;;;;;;;;5128050;27;20139;-75
2022/08/15 02:38:05;;;;;;;15.80;12.52;;;;;;;;;;5121526;27;20024;-75
2022/08/15 02:40:31;;;;;;;13.88;12.30;;;;;;;;;;5136196;27;20047;-75
2022/08/15 02:43:04;;;;;;;15.07;12.98;;;;;;;;;;5140208;27;20039;-73
2022/08/15 02:45:34;;;;;;;17.05;13.15;;;;;;;;;;5102831;28;20024;-75
2022/08/15 02:48:00;;;;;;;15.65;12.70;;;;;;;;;;5129461;27;20026;-73
2022/08/15 02:50:26;;;;;;;15.18;12.98;;;;;;;;;;5130533;27;20087;-74
2022/08/15 02:52:53;;;;;;;18.55;13.10;;;;;;;;;;5134833;27;20026;-75
2022/08/15 02:55:19;;;;;;;15.20;13.35;;;;;;;;;;5138280;27;20103;-74
2022/08/15 02:57:45;;;;;;;17.42;14.27;;;;;;;;;;5122568;27;20032;-73
2022/08/15 03:00:15;;;;;;;16.55;13.15;;;;;;;;;;5135087;27;20059;-74
2022/08/15 03:02:53;;;;;;;18.30;13.65;;;;;;;;;;5139070;27;20083;-74
2022/08/15 03:05:20;;;;;;;16.20;13.77;;;;;;;;;;5120988;28;20052;-74
2022/08/15 03:07:46;;;;;;;19.92;14.85;;;;;;;;;;5113653;27;20020;-73
2022/08/15 03:10:12;;;;;;;15.77;14.15;;;;;;;;;;5137162;27;20087;-74
2022/08/15 03:13:08;;;;;;;16.42;14.60;;;;;;;;;;5128831;27;20171;-74
2022/08/15 03:15:39;;;;;;;15.52;14.02;;;;;;;;;;5116994;27;20028;-74
2022/08/15 03:18:05;;;;;;;21.42;14.45;;;;;;;;;;5120268;27;20108;-74
2022/08/15 03:20:32;;;;;;;15.85;14.05;;;;;;;;;;5134352;27;20016;-74
2022/08/15 03:22:59;;;;;;;17.92;14.88;;;;;;;;;;5129447;27;20028;-74
2022/08/15 03:25:26;;;;;;;16.25;14.55;;;;;;;;;;5123042;27;20054;-73
2022/08/15 03:27:55;;;;;;;17.23;14.07;;;;;;;;;;5130882;27;20050;-74
2022/08/15 03:30:21;;;;;;;14.70;13.20;;;;;;;;;;5139174;27;20087;-74
2022/08/15 03:32:49;;;;;;;15.82;14.23;;;;;;;;;;5125671;27;20080;-74
2022/08/15 03:35:16;;;;;;;17.23;15.48;;;;;;;;;;5119623;27;20069;-75
2022/08/15 03:37:42;;;;;;;19.45;15.98;;;;;;;;;;5129338;27;20091;-75
2022/08/15 03:40:08;;;;;;;16.27;14.13;;;;;;;;;;5127897;27;20024;-75
2022/08/15 03:42:35;;;;;;;17.05;15.25;;;;;;;;;;5102530;28;20032;-75
2022/08/15 03:45:02;;;;;;;16.85;14.52;;;;;;;;;;5106456;28;20057;-76
2022/08/15 03:47:29;;;;;;;16.67;15.02;;;;;;;;;;5088738;28;20049;-75
2022/08/15 03:49:55;;;;;;;17.20;15.60;;;;;;;;;;5133276;27;20075;-74
2022/08/15 03:52:21;;;;;;;16.55;14.85;;;;;;;;;;5137336;27;20079;-75
2022/08/15 03:54:47;;;;;;;19.75;15.48;;;;;;;;;;5131373;27;20048;-74
2022/08/15 03:57:13;;;;;;;16.42;14.80;;;;;;;;;;5125124;28;20047;-75
2022/08/15 03:59:39;;;;;;;16.65;14.90;;;;;;;;;;5133342;27;20039;-73
2022/08/15 04:02:09;;;;;;;16.58;14.88;;;;;;;;;;5108284;28;20103;-75
2022/08/15 04:04:35;;;;;;;16.95;14.73;;;;;;;;;;5114493;28;20051;-74
2022/08/15 04:07:03;;;;;;;20.33;17.17;;;;;;;;;;5121190;27;20028;-76
2022/08/15 04:09:29;;;;;;;19.20;16.85;;;;;;;;;;5116397;27;20043;-75
2022/08/15 04:11:55;;;;;;;18.00;16.13;;;;;;;;;;5123549;27;20043;-75
2022/08/15 04:14:21;;;;;;;18.25;16.45;;;;;;;;;;5126052;27;20020;-75
2022/08/15 04:16:47;;;;;;;18.33;16.52;;;;;;;;;;5119335;27;20047;-73
2022/08/15 04:19:15;;;;;;;18.33;16.52;;;;;;;;;;5118910;27;20027;-73
2022/08/15 04:21:42;;;;;;;18.95;16.95;;;;;;;;;;5126693;28;20020;-75
2022/08/15 04:24:08;;;;;;;18.58;16.58;;;;;;;;;;5117680;28;20035;-74
2022/08/15 04:26:34;;;;;;;21.13;16.85;;;;;;;;;;5122062;27;20027;-74
2022/08/15 04:29:01;;;;;;;18.63;15.65;;;;;;;;;;5129278;27;20087;-74
2022/08/15 04:31:27;;;;;;;17.55;15.75;;;;;;;;;;5129220;27;20032;-74
2022/08/15 04:33:53;;;;;;;17.75;15.90;;;;;;;;;;5129988;27;20090;-74
2022/08/15 04:36:21;;;;;;;18.30;15.70;;;;;;;;;;5123982;27;20062;-74
2022/08/15 04:38:50;;;;;;;18.10;16.20;;;;;;;;;;5127189;27;20027;-74
2022/08/15 04:41:17;;;;;;;20.88;17.13;;;;;;;;;;5125040;27;20028;-75
2022/08/15 04:43:44;;;;;;;19.10;16.45;;;;;;;;;;5117601;28;20134;-75
2022/08/15 04:46:10;;;;;;;22.70;16.55;;;;;;;;;;5124951;27;20036;-73
2022/08/15 04:48:36;;;;;;;19.85;16.05;;;;;;;;;;5119714;27;20028;-73
2022/08/15 04:51:04;;;;;;;18.67;16.67;;;;;;;;;;5117348;28;20024;-74
2022/08/15 04:53:33;;;;;;;18.10;16.17;;;;;;;;;;5136094;27;20019;-73
2022/08/15 04:56:00;;;;;;;18.20;16.30;;;;;;;;;;5120649;28;20058;-74
2022/08/15 04:58:26;;;;;;;18.85;15.32;;;;;;;;;;5117204;27;20056;-73
2022/08/15 05:01:04;;;;;;;20.15;15.20;;;;;;;;;;5124504;28;20036;-73
2022/08/15 05:03:31;;;;;;;28.42;17.63;;;;;;;;;;5130545;28;20044;-73
2022/08/15 05:05:59;;;;;;;20.67;16.45;;;;;;;;;;5116097;28;20125;-73
2022/08/15 05:08:27;;;;;;;18.90;16.90;;;;;;;;;;5120430;28;20054;-74
2022/08/15 05:10:57;;;;;;;18.63;16.33;;;;;;;;;;5127133;28;20031;-74
2022/08/15 05:13:35;;;;;;;18.73;16.75;;;;;;;;;;5126846;27;20051;-73
2022/08/15 05:16:01;;;;;;;19.35;17.30;;;;;;;;;;5126437;28;20063;-74
2022/08/15 05:18:29;;;;;;;19.00;15.68;;;;;;;;;;5118264;28;20024;-73
2022/08/15 05:20:55;;;;;;;18.15;16.27;;;;;;;;;;5115022;28;20269;-74
2022/08/15 05:23:23;;;;;;;18.38;15.38;;;;;;;;;;5114277;28;20067;-72
2022/08/15 05:25:53;;;;;;;17.15;15.35;;;;;;;;;;5116222;28;20016;-73
2022/08/15 05:28:20;;;;;;;17.15;15.40;;;;;;;;;;5117151;28;20036;-73
2022/08/15 05:30:46;;;;;;;15.90;14.30;;;;;;;;;;5125376;28;20100;-73
2022/08/15 05:33:14;;;;;;;17.15;15.45;;;;;;;;;;5117736;28;20048;-74
2022/08/15 05:35:42;;;;;;;16.48;14.65;;;;;;;;;;5112148;28;20043;-73
2022/08/15 05:38:11;;;;;;;16.77;14.90;;;;;;;;;;5112375;28;20417;-73
2022/08/15 05:40:44;;;;;;;16.25;14.50;;;;;;;;;;5110872;28;20130;-73
2022/08/15 05:43:12;;;;;;;16.20;14.45;;;;;;;;;;5116736;28;20040;-72
2022/08/15 05:45:43;;;;;;;15.73;14.13;;;;;;;;;;5121428;28;20039;-72
2022/08/15 05:48:12;;;;;;;18.83;13.82;;;;;;;;;;5122531;28;20085;-73
2022/08/15 05:50:46;;;;;;;14.63;12.82;;;;;;;;;;5117244;28;20168;-74
2022/08/15 05:53:12;;;;;;;17.20;12.70;;;;;;;;;;5110023;28;20058;-73
2022/08/15 05:55:39;;;;;;;14.85;13.32;;;;;;;;;;5115977;28;20497;-74
2022/08/15 05:58:23;;;;;;;14.27;12.80;;;;;;;;;;5126911;28;20054;-74
2022/08/15 06:00:58;;;;;;;14.60;13.13;;;;;;;;;;5111435;27;20027;-73
2022/08/15 06:03:26;;;;;;;14.85;13.20;;;;;;;;;;5127924;27;20075;-73
2022/08/15 06:05:55;;;;;;;14.18;12.63;;;;;;;;;;5121412;27;20078;-72
2022/08/15 06:08:23;;;;;;;14.93;13.35;;;;;;;;;;5118070;27;20049;-73
2022/08/15 06:10:51;;;;;;;16.27;14.00;;;;;;;;;;5117415;28;20043;-73
2022/08/15 06:13:36;;;;;;;15.40;13.80;;;;;;;;;;5121990;27;20027;-72
2022/08/15 06:16:06;;;;;;;15.27;13.70;;;;;;;;;;5137132;27;20028;-71
2022/08/15 06:18:34;;;;;;;15.15;12.68;;;;;;;;;;5102632;28;20031;-73
2022/08/15 06:21:01;;;;;;;26.13;14.45;;;;;;;;;;5136940;27;20034;-74
2022/08/15 06:23:27;;;;;;;15.02;12.35;;;;;;;;;;5102645;28;20065;-74
2022/08/15 06:26:11;;;;;;;14.38;12.77;;;;;;;;;;5124699;27;20024;-72
2022/08/15 06:28:50;;;;;;;15.85;13.23;;;;;;;;;;5122405;27;20036;-72
2022/08/15 06:31:20;;;;;;;13.68;12.23;;;;;;;;;;5116504;28;20442;-72
2022/08/15 06:34:03;;;;;;;13.85;12.07;;;;;;;;;;5124002;27;20070;-73
2022/08/15 06:36:38;;;;;;;15.93;13.00;;;;;;;;;;5136288;27;20015;-73
2022/08/15 06:39:09;;;;;;;15.77;12.80;;;;;;;;;;5140697;27;20106;-73
2022/08/15 06:41:38;;;;;;;13.75;11.55;;;;;;;;;;5136583;27;20036;-73
2022/08/15 06:44:05;;;;;;;14.38;12.00;;;;;;;;;;5118847;28;20032;-73
2022/08/15 06:46:34;;;;;;;14.52;12.75;;;;;;;;;;5131695;27;20038;-72
2022/08/15 06:49:03;;;;;;;13.50;12.15;;;;;;;;;;5101813;28;20084;-72
2022/08/15 06:51:30;;;;;;;13.95;12.13;;;;;;;;;;5119440;27;20145;-71
2022/08/15 06:53:58;;;;;;;14.07;12.63;;;;;;;;;;5129986;27;20617;-71
2022/08/15 06:56:24;;;;;;;14.70;13.38;;;;;;;;;;5138199;27;20115;-71
2022/08/15 06:59:01;;;;;;;15.70;12.93;;;;;;;;;;5131398;27;20028;-73
2022/08/15 07:01:46;;;;;;;31.98;12.65;;;;;;;;;;5130103;27;20024;-73
2022/08/15 07:04:21;;;;;;;14.48;12.82;;;;;;;;;;5119223;28;20092;-72
2022/08/15 07:07:10;;;;;;;14.80;13.40;;;;;;;;;;5126841;27;20083;-73
2022/08/15 07:09:45;;;;;;;14.32;12.80;;;;;;;;;;5055549;28;20026;-73
2022/08/15 07:12:11;;;;;;;14.52;13.02;;;;;;;;;;5056760;28;20084;-73
2022/08/15 07:14:56;;;;;;;15.00;13.38;;;;;;;;;;5058755;28;20025;-73
2022/08/15 07:17:31;;;;;;;14.63;13.13;;;;;;;;;;5056563;28;20024;-72
2022/08/15 07:19:57;;;;;;;14.85;13.35;;;;;;;;;;5057029;28;20065;-73
2022/08/15 07:22:24;;;;;;;14.68;13.10;;;;;;;;;;5057529;28;20026;-72
2022/08/15 07:24:52;;;;;;;17.75;13.15;;;;;;;;;;5055829;28;20025;-73
2022/08/15 07:27:24;;;;;;;21.00;13.57;;;;;;;;;;5057019;28;20109;-73
2022/08/15 07:29:57;;;;;;;17.92;13.13;;;;;;;;;;5057535;28;20053;-73
2022/08/15 07:32:22;;;;;;;17.75;12.90;;;;;;;;;;5057360;28;20063;-73
2022/08/15 07:34:56;;;;;;;16.33;14.23;;;;;;;;;;5057343;28;20045;-73
2022/08/15 07:37:23;;;;;;;19.02;14.55;;;;;;;;;;5072273;28;20044;-72
2022/08/15 07:39:57;;;;;;;15.30;13.90;;;;;;;;;;5061075;28;20037;-74
2022/08/15 07:42:23;;;;;;;16.50;13.70;;;;;;;;;;5056484;28;20040;-72
2022/08/15 07:44:50;;;;;;;16.58;13.70;;;;;;;;;;5056164;28;20028;-72
2022/08/15 07:47:23;;;;;;;15.98;12.85;;;;;;;;;;5089978;28;20036;-72
2022/08/15 07:50:25;;;;;;;14.98;13.38;;;;;;;;;;5117882;28;20039;-73
2022/08/15 07:53:04;;;;;;;14.93;13.02;;;;;;;;;;5027320;28;20897;-72
2022/08/15 07:55:31;;;;;;;12.40;11.20;;;;;;;;;;5030102;28;20128;-73
2022/08/15 07:58:02;;;;;;;11.88;10.35;;;;;;;;;;5056792;28;20056;-72
2022/08/15 08:00:30;;;;;;;12.20;10.10;;;;;;;;;;5024680;28;20038;-73
2022/08/15 08:03:02;;;;;;;11.40;10.25;;;;;;;;;;5018950;28;20102;-73
2022/08/15 08:05:36;;;;;;;12.80;9.35;;;;;;;;;;5036706;28;20026;-73
2022/08/15 08:08:05;;;;;;;11.23;10.07;;;;;;;;;;5044927;28;20045;-73
2022/08/15 08:10:34;;;;;;;11.60;9.55;;;;;;;;;;5051972;28;20018;-74
2022/08/15 08:13:06;;;;;;;11.27;9.38;;;;;;;;;;5039290;28;20049;-73
2022/08/15 08:15:40;;;;;;;10.38;9.10;;;;;;;;;;5034952;28;20041;-74
2022/08/15 08:18:12;;;;;;;11.13;9.02;;;;;;;;;;5035617;28;20044;-73
2022/08/15 08:20:50;;;;;;;13.20;8.95;;;;;;;;;;5035585;28;20042;-73
2022/08/15 08:23:20;;;;;;;12.00;6.75;;;;;;;;;;5037844;28;20089;-72
2022/08/15 08:25:52;;;;;;;14.07;6.65;;;;;;;;;;5062940;28;20029;-73
2022/08/15 08:28:28;;;;;;;7.35;6.25;;;;;;;;;;5115780;28;20035;-73
2022/08/15 08:31:02;;;;;;;7.32;6.15;;;;;;;;;;5113560;28;20044;-73
2022/08/15 08:33:28;;;;;;;9.27;6.03;;;;;;;;;;5094041;27;20063;-79
2022/08/15 08:35:57;;;;;;;9.85;5.97;;;;;;;;;;5116712;28;20055;-74
2022/08/15 08:38:38;;;;;;;9.05;6.43;;;;;;;;;;5108299;28;20047;-74
2022/08/15 08:44:01;;;;;;;12.02;6.20;;;;;;;;;;5110320;28;20431;-74
2022/08/15 08:47:05;;;;;;;10.40;5.55;;;;;;;;;;5124045;27;20058;-72
2022/08/15 08:49:47;;;;;;;12.70;6.30;;;;;;;;;;5028144;28;20110;-73
2022/08/15 08:52:32;;;;;;;11.43;6.30;;;;;;;;;;5050614;28;20056;-75
2022/08/15 08:54:58;;;;;;;10.82;6.50;;;;;;;;;;5041247;28;20088;-76
2022/08/15 08:57:26;;;;;;;9.05;6.22;;;;;;;;;;5022480;28;20571;-74
2022/08/15 08:59:59;;;;;;;8.10;6.20;;;;;;;;;;5035314;28;21012;-73
2022/08/15 09:02:29;;;;;;;7.93;6.10;;;;;;;;;;5034073;28;20048;-73
2022/08/15 09:05:02;;;;;;;26.05;7.35;;;;;;;;;;5041078;28;20585;-74
2022/08/15 09:07:31;;;;;;;12.40;6.43;;;;;;;;;;5047098;28;20041;-72
2022/08/15 09:10:00;;;;;;;10.75;5.80;;;;;;;;;;5050502;28;20053;-71
2022/08/15 09:15:15;;;;;;;10.07;6.15;;;;;;;;;;5051684;28;20041;-72
2022/08/15 09:17:43;;;;;;;8.50;5.85;;;;;;;;;;5049320;28;20026;-70
2022/08/15 09:20:09;;;;;;;13.13;6.95;;;;;;;;;;5092745;28;20032;-71
2022/08/15 09:22:35;;;;;;;9.75;6.68;;;;;;;;;;5136124;27;20032;-71
2022/08/15 09:25:01;;;;;;;16.60;6.60;;;;;;;;;;5122705;27;20024;-71
2022/08/15 09:27:32;;;;;;;11.25;6.90;;;;;;;;;;5118440;27;20024;-71
2022/08/15 09:30:04;;;;;;;10.57;6.93;;;;;;;;;;5114665;28;20056;-71
2022/08/15 09:32:30;;;;;;;8.15;6.55;;;;;;;;;;5116140;28;20051;-71
2022/08/15 09:35:04;;;;;;;13.23;7.68;;;;;;;;;;5121501;27;20027;-70
2022/08/15 09:37:54;;;;;;;13.10;7.43;;;;;;;;;;5111779;28;20032;-71
2022/08/15 09:40:32;;;;;;;16.27;7.72;;;;;;;;;;5107591;27;20054;-73
2022/08/15 09:43:08;;;;;;;10.90;7.10;;;;;;;;;;5114869;28;20073;-72
2022/08/15 09:45:40;;;;;;;12.07;7.47;;;;;;;;;;5116902;27;20032;-73
2022/08/15 09:48:33;;;;;;;10.18;7.78;;;;;;;;;;5131402;27;20038;-73
2022/08/15 09:51:02;;;;;;;10.02;8.00;;;;;;;;;;5106859;28;20040;-72
2022/08/15 09:53:28;;;;;;;11.60;8.65;;;;;;;;;;5115170;28;20051;-72
2022/08/15 09:56:01;;;;;;;11.07;8.70;;;;;;;;;;5115849;28;20066;-72
2022/08/15 09:58:31;;;;;;;12.75;8.68;;;;;;;;;;5095790;28;20048;-72
2022/08/15 10:01:05;;;;;;;13.77;9.32;;;;;;;;;;5115726;28;20107;-73
2022/08/15 10:03:44;;;;;;;13.43;9.38;;;;;;;;;;5100218;27;20057;-73
2022/08/15 10:06:11;;;;;;;14.63;9.23;;;;;;;;;;5124989;27;20020;-72
2022/08/15 10:08:52;;;;;;;11.63;9.27;;;;;;;;;;5140004;27;20061;-72
2022/08/15 10:11:25;;;;;;;11.38;9.70;;;;;;;;;;5137638;27;20043;-73
2022/08/15 10:14:05;;;;;;;12.98;9.88;;;;;;;;;;5122345;27;20020;-73
2022/08/15 10:16:39;;;;;;;12.68;9.95;;;;;;;;;;5118014;28;20052;-72
2022/08/15 10:19:35;;;;;;;12.07;10.88;;;;;;;;;;5118609;28;20028;-72
2022/08/15 10:22:22;;;;;;;14.05;10.40;;;;;;;;;;5112864;27;20036;-72
2022/08/15 10:25:06;;;;;;;15.93;10.98;;;;;;;;;;5095448;28;20066;-72
2022/08/15 10:27:52;;;;;;;15.98;11.18;;;;;;;;;;5121601;27;20024;-72
2022/08/15 10:30:18;;;;;;;14.38;12.80;;;;;;;;;;5121770;27;20083;-73
2022/08/15 10:32:44;;;;;;;15.63;13.02;;;;;;;;;;5140307;27;20110;-73
2022/08/15 10:35:15;;;;;;;14.93;13.43;;;;;;;;;;5133928;27;20039;-73
2022/08/15 10:37:46;;;;;;;;;;;;;;;;;;5103629;28;20053;-73
2022/08/15 10:40:14;;;;;;;17.25;15.40;;;;;;;;;;5122039;27;19925;-73
2022/08/15 10:42:44;;;;;;;20.60;15.18;;;;;;;;;;5118473;28;20052;-73
2022/08/15 10:45:16;;;;;;;16.08;14.38;;;;;;;;;;5138660;27;20054;-73
2022/08/15 10:47:43;;;;;;;16.50;14.88;;;;;;;;;;5121495;27;20091;-73
2022/08/15 10:50:15;;;;;;;17.98;16.08;;;;;;;;;;5124334;27;20027;-73
2022/08/15 10:52:49;;;;;;;19.50;15.55;;;;;;;;;;5127907;27;20108;-73
2022/08/15 10:55:24;;;;;;;17.33;14.32;;;;;;;;;;5120428;28;20032;-73
2022/08/15 10:57:52;;;;;;;18.55;16.10;;;;;;;;;;5127557;27;20039;-73
2022/08/15 11:00:32;;;;;;;19.60;16.58;;;;;;;;;;5118443;28;20104;-73
2022/08/15 11:03:01;;;;;;;19.60;15.75;;;;;;;;;;5116826;28;20047;-72
2022/08/15 11:05:27;;;;;;;18.08;16.15;;;;;;;;;;5114448;28;20114;-72
2022/08/15 11:07:55;;;;;;;17.08;15.27;;;;;;;;;;5116397;28;20036;-72
2022/08/15 11:10:23;;;;;;;20.55;14.60;;;;;;;;;;5115321;28;20059;-72
2022/08/15 11:12:51;;;;;;;19.05;15.43;;;;;;;;;;5124521;27;20049;-71
2022/08/15 11:15:20;;;;;;;17.25;14.98;;;;;;;;;;5100408;28;20117;-71
2022/08/15 11:17:48;;;;;;;18.13;14.60;;;;;;;;;;5108627;28;20034;-71
2022/08/15 11:20:16;;;;;;;25.80;14.60;;;;;;;;;;5127713;28;20032;-71
2022/08/15 11:22:51;;;;;;;18.50;14.75;;;;;;;;;;5118986;28;20055;-71
2022/08/15 11:25:20;;;;;;;21.42;14.20;;;;;;;;;;5081010;28;20074;-71
2022/08/15 11:27:57;;;;;;;16.83;14.20;;;;;;;;;;5111364;28;20131;-70
2022/08/15 11:30:24;;;;;;;16.48;14.70;;;;;;;;;;5096686;28;20052;-71
2022/08/15 11:32:52;;;;;;;16.83;15.00;;;;;;;;;;5115110;28;20020;-70
2022/08/15 11:35:24;;;;;;;16.95;15.15;;;;;;;;;;5115788;28;20076;-70
2022/08/15 11:37:53;;;;;;;18.77;14.77;;;;;;;;;;5113336;28;20063;-70
2022/08/15 11:40:41;;;;;;;17.38;14.02;;;;;;;;;;5082288;28;20024;-70
2022/08/15 11:43:08;;;;;;;16.90;14.88;;;;;;;;;;5127265;28;20097;-70
2022/08/15 11:45:35;;;;;;;18.58;15.95;;;;;;;;;;5122235;28;20045;-70
2022/08/15 11:48:01;;;;;;;17.63;15.88;;;;;;;;;;5113986;28;20044;-70
2022/08/15 11:50:34;;;;;;;18.67;16.02;;;;;;;;;;5113557;28;20502;-71
2022/08/15 11:53:02;;;;;;;17.65;15.80;;;;;;;;;;5095189;28;20168;-70
2022/08/15 11:55:28;;;;;;;18.02;16.08;;;;;;;;;;5125571;28;20081;-70
2022/08/15 11:57:56;;;;;;;17.17;14.13;;;;;;;;;;5127454;28;20192;-71
2022/08/15 12:00:40;;;;;;;17.95;16.15;;;;;;;;;;5123077;28;20065;-70
2022/08/15 12:03:27;;;;;;;17.98;14.40;;;;;;;;;;5112927;28;20067;-70
2022/08/15 12:05:58;;;;;;;18.48;15.02;;;;;;;;;;5122380;28;20406;-70
2022/08/15 12:08:28;;;;;;;17.50;15.20;;;;;;;;;;5120513;27;20040;-70
2022/08/15 12:11:04;;;;;;;20.75;16.20;;;;;;;;;;5128219;28;20054;-70
2022/08/15 12:13:30;;;;;;;16.90;15.10;;;;;;;;;;5115921;28;20044;-70
2022/08/15 12:15:56;;;;;;;20.23;17.67;;;;;;;;;;5120214;28;20628;-71
2022/08/15 12:18:23;;;;;;;17.80;15.85;;;;;;;;;;5130668;28;20055;-71
2022/08/15 12:20:56;;;;;;;16.20;14.60;;;;;;;;;;5099709;28;20043;-71
2022/08/15 12:23:36;;;;;;;20.52;15.43;;;;;;;;;;5113473;28;20055;-72
2022/08/15 12:26:11;;;;;;;15.70;14.10;;;;;;;;;;5113711;28;20044;-71
2022/08/15 12:28:38;;;;;;;17.38;15.68;;;;;;;;;;5121573;28;20051;-71
2022/08/15 12:31:23;;;;;;;19.38;17.35;;;;;;;;;;5116913;28;20070;-71
2022/08/15 12:34:00;;;;;;;17.05;15.55;;;;;;;;;;5112901;28;20032;-71
2022/08/15 12:36:27;;;;;;;18.77;16.77;;;;;;;;;;5094175;28;20036;-70
2022/08/15 12:38:53;;;;;;;17.35;15.50;;;;;;;;;;5114753;28;20130;-71
2022/08/15 12:41:19;;;;;;;16.75;14.70;;;;;;;;;;5102227;28;20036;-71
2022/08/15 12:43:45;;;;;;;17.35;15.48;;;;;;;;;;5122990;28;20036;-70
2022/08/15 12:46:11;;;;;;;17.63;15.82;;;;;;;;;;5126363;28;20096;-70
2022/08/15 12:48:39;;;;;;;17.50;15.55;;;;;;;;;;5104154;28;20055;-70
2022/08/15 12:51:07;;;;;;;18.05;16.20;;;;;;;;;;5102622;28;20048;-69
2022/08/15 12:53:33;;;;;;;17.88;15.48;;;;;;;;;;5110341;28;20076;-69
2022/08/15 12:55:59;;;;;;;17.42;15.50;;;;;;;;;;5088272;28;20087;-70
2022/08/15 12:58:26;;;;;;;17.88;15.70;;;;;;;;;;5111764;28;20067;-70
2022/08/15 13:00:53;;;;;;;17.60;14.90;;;;;;;;;;5110842;28;20044;-70
2022/08/15 13:03:20;;;;;;;17.35;14.77;;;;;;;;;;5086022;28;20056;-71
2022/08/15 13:05:51;;;;;;;16.58;14.82;;;;;;;;;;5102615;28;20044;-70
2022/08/15 13:08:17;;;;;;;16.13;14.43;;;;;;;;;;5088213;28;20068;-70
2022/08/15 13:10:43;;;;;;;17.05;15.35;;;;;;;;;;5112479;28;20048;-71
2022/08/15 13:13:11;;;;;;;17.52;15.73;;;;;;;;;;5132161;28;20547;-70
2022/08/15 13:15:37;;;;;;;19.40;16.83;;;;;;;;;;5121336;28;20058;-71
2022/08/15 13:18:04;;;;;;;16.83;15.13;;;;;;;;;;5099284;28;20071;-71
2022/08/15 13:26:00;;;;;;;20.08;15.18;;;;;;;;;;5111423;28;20055;-71
2022/08/15 13:28:26;;;;;;;20.20;16.77;;;;;;;;;;5115682;28;20039;-70
2022/08/15 13:30:52;;;;;;;18.38;15.82;;;;;;;;;;5114096;28;20042;-71
2022/08/15 13:33:18;;;;;;;19.92;17.67;;;;;;;;;;5108776;28;20048;-71
2022/08/15 13:35:45;;;;;;;18.25;15.88;;;;;;;;;;5093883;28;20048;-71
2022/08/15 13:38:11;;;;;;;19.02;17.00;;;;;;;;;;5082993;28;20044;-71
2022/08/15 13:40:38;;;;;;;22.70;15.07;;;;;;;;;;5099471;28;20040;-70
2022/08/15 13:43:05;;;;;;;19.25;12.38;;;;;;;;;;5119236;28;20459;-71
2022/08/15 13:45:32;;;;;;;19.75;13.13;;;;;;;;;;5123088;28;20047;-71
2022/08/15 13:47:58;;;;;;;15.73;12.40;;;;;;;;;;5125480;28;20064;-71
2022/08/15 13:50:25;;;;;;;17.98;13.52;;;;;;;;;;5113483;28;20104;-72
2022/08/15 13:52:52;;;;;;;21.92;13.73;;;;;;;;;;5106501;28;20071;-71
2022/08/15 13:55:20;;;;;;;21.52;14.43;;;;;;;;;;5115878;28;20056;-71
2022/08/15 13:57:47;;;;;;;20.00;13.43;;;;;;;;;;5113511;28;20543;-71
2022/08/15 14:00:14;;;;;;;21.63;13.18;;;;;;;;;;5138829;27;20108;-71
2022/08/15 14:02:41;;;;;;;18.55;14.98;;;;;;;;;;5138561;27;20056;-71
2022/08/15 14:05:08;;;;;;;20.83;13.00;;;;;;;;;;5119034;27;20028;-71
2022/08/15 14:07:35;;;;;;;16.92;12.55;;;;;;;;;;5113452;28;20448;-71
2022/08/15 14:10:01;;;;;;;14.82;13.25;;;;;;;;;;5120959;28;20062;-71
2022/08/15 14:12:27;;;;;;;14.55;12.07;;;;;;;;;;5134213;28;20063;-70
2022/08/15 14:14:54;;;;;;;18.05;13.15;;;;;;;;;;5136895;27;20051;-71
2022/08/15 14:17:20;;;;;;;14.85;11.10;;;;;;;;;;5116102;28;20047;-71
2022/08/15 14:19:48;;;;;;;11.07;9.95;;;;;;;;;;5113376;28;20048;-71
2022/08/15 14:22:14;;;;;;;11.65;8.88;;;;;;;;;;5102289;28;20051;-71
2022/08/15 14:24:40;;;;;;;14.20;9.48;;;;;;;;;;5125088;28;20020;-71
2022/08/15 14:27:07;;;;;;;17.33;8.40;;;;;;;;;;5090333;28;20137;-70
2022/08/15 14:29:43;;;;;;;11.63;8.65;;;;;;;;;;5130244;28;20099;-70
2022/08/15 14:32:09;;;;;;;10.27;9.00;;;;;;;;;;5127056;28;20085;-70
2022/08/15 14:34:36;;;;;;;10.35;9.00;;;;;;;;;;5090841;28;20051;-71
2022/08/15 14:37:03;;;;;;;16.10;9.00;;;;;;;;;;5129707;28;20043;-70
2022/08/15 14:39:29;;;;;;;14.13;7.82;;;;;;;;;;5126795;28;20044;-70
2022/08/15 14:41:55;;;;;;;11.93;9.90;;;;;;;;;;5133487;28;20043;-70
2022/08/15 14:44:22;;;;;;;11.52;9.00;;;;;;;;;;5119190;28;20040;-70
2022/08/15 14:46:49;;;;;;;15.73;10.38;;;;;;;;;;5114571;28;20088;-71
2022/08/15 14:49:15;;;;;;;11.52;9.63;;;;;;;;;;5115038;28;20032;-70
2022/08/15 14:51:43;;;;;;;12.85;9.63;;;;;;;;;;5117822;28;20048;-72